Frisco City, Alabama
Current Conditions -  °F | °C
As of 12:53 PM on Sunday 23 Nov 2014 (Local Time) from KGZH Reporting Station
Moderate Rain Moderate Rain  
Wind Chill: 67°   Ceiling: 7500
Heat Index: 67°   Visibility: 5mi
Dew Point: 62°   Wind: 13mph
Humidity: 84%   Direction: 220°SW
Pressure: 29.7"   Gusts: NA
Location:  31.43°N, 87.4°W
Report Text: KGZH 231853Z AUTO 22011KT 5SM RA FEW060 BKN075 OVC100 19/17 A2970 RMK AO2 PK WND 24026/1823 SLP056 P0009 T01940167
Loading
Personal Weather Stations






























Interactive Weather Map New forecast layout! Learn more

10-Day Weather Forecast

Advertisements
Track Severe Weather on mobile